Huslia Airport Huslia US
ICAO: PAHL
IATA:
Category: Medium
Scheduled Services:

Elevation: 220 ft
TransAlt. 18000 ft.

Airport Communications:
AWOS 3:135.75
ANCHORAGE CNTR:127
CTAF:122.8
FAIRBANKS RDO:122.4

PAHL Zoom In..

Runways:

(A) RW 03 length 4000 ft width 75 ft
---- / hdg 32

(B) RW 21 length 4000 ft width 75 ft
---- / hdg 212

Location; PAHL
Day. 17 / Time. 06.56 Zulu
* Altimeter: 29.94
* Temperature: 09° c. 48.2°f.
* Wind from: 300° Speed 05 kn.
Dewpoint: 05° c.
Visibility: 10 Statute Miles.
Clouds: Broken 3800 ft.
Clouds: Broken 4600 ft.

PAHL 170656Z AUTO 30005KT 10SM BKN038 BKN046 09/05 A2994 RMK AO2 SLP148 T00940050


Wind From 300°
Speed 05 kn.

 
 
jpsmedia.com for Web Design worldairports.se 2018   terms of use